createdAt,value
2022-10-03T00:01:15.726Z,89.90
2022-10-03T00:04:00.245Z,89.87
2022-10-03T00:06:42.226Z,89.86
2022-10-03T00:09:37.425Z,89.88
2022-10-03T00:12:08.160Z,89.81
2022-10-03T00:14:41.768Z,89.60
2022-10-03T00:17:27.409Z,89.43
2022-10-03T00:19:58.353Z,89.48
2022-10-03T00:22:36.466Z,89.39
2022-10-03T00:25:30.176Z,89.32
2022-10-03T00:28:16.515Z,89.47
2022-10-03T00:30:47.455Z,89.50
2022-10-03T00:33:18.224Z,89.32
2022-10-03T00:36:24.739Z,89.45
2022-10-03T00:39:30.648Z,89.54
2022-10-03T00:42:33.185Z,89.53
2022-10-03T00:45:27.135Z,89.63
2022-10-03T00:48:16.927Z,89.70
2022-10-03T00:51:45.757Z,89.72
2022-10-03T00:54:39.691Z,89.66
2022-10-03T00:57:37.881Z,89.73
2022-10-03T01:00:18.107Z,89.65
2022-10-03T01:03:05.289Z,89.51
2022-10-03T01:05:39.185Z,89.56
2022-10-03T01:08:38.323Z,89.58
2022-10-03T01:11:15.632Z,89.51
2022-10-03T01:13:46.254Z,89.52
2022-10-03T01:16:29.540Z,89.51
2022-10-03T01:19:21.990Z,89.50
2022-10-03T01:22:16.267Z,89.47
2022-10-03T01:24:52.582Z,89.44
2022-10-03T01:28:21.648Z,89.18
2022-10-03T01:31:01.294Z,89.13
2022-10-03T01:33:38.608Z,89.12
2022-10-03T01:36:32.913Z,89.14
2022-10-03T01:39:09.463Z,89.13
2022-10-03T01:41:59.257Z,89.21
2022-10-03T01:44:38.081Z,89.21
2022-10-03T01:47:27.507Z,89.26
2022-10-03T01:50:07.351Z,89.27
2022-10-03T01:52:44.101Z,89.24
2022-10-03T01:55:24.211Z,88.94
2022-10-03T01:58:01.074Z,89.02
2022-10-03T02:00:54.136Z,88.97
2022-10-03T02:03:29.762Z,89.01
2022-10-03T02:06:03.363Z,88.95
2022-10-03T02:08:40.514Z,88.99
2022-10-03T02:11:11.230Z,89.04
2022-10-03T02:14:20.818Z,89.08
2022-10-03T02:17:07.646Z,89.07
2022-10-03T02:19:46.661Z,88.98
2022-10-03T02:22:38.598Z,88.94
2022-10-03T02:25:44.112Z,88.76
2022-10-03T02:28:44.406Z,88.64
2022-10-03T02:31:24.001Z,88.60
2022-10-03T02:34:16.602Z,88.52
2022-10-03T02:37:20.561Z,88.44
2022-10-03T02:39:50.914Z,88.36
2022-10-03T02:42:40.703Z,88.30
2022-10-03T02:45:30.219Z,88.34
2022-10-03T02:48:32.567Z,88.35
2022-10-03T02:51:18.130Z,88.28
2022-10-03T02:54:04.952Z,88.32
2022-10-03T02:56:48.237Z,88.31
2022-10-03T02:59:53.252Z,88.40
2022-10-03T03:02:45.851Z,88.39
2022-10-03T03:05:38.584Z,88.49
2022-10-03T03:08:34.060Z,88.53
2022-10-03T03:11:27.815Z,88.64
2022-10-03T03:14:29.772Z,88.83
2022-10-03T03:17:06.632Z,89.04
2022-10-03T03:19:51.815Z,89.25
2022-10-03T03:22:47.675Z,89.37
2022-10-03T03:25:40.534Z,89.66
2022-10-03T03:28:47.141Z,89.50
2022-10-03T03:31:24.720Z,89.74
2022-10-03T03:34:19.142Z,89.84
2022-10-03T03:37:02.242Z,90.03
2022-10-03T03:39:48.130Z,90.09
2022-10-03T03:42:54.255Z,90.00
2022-10-03T03:45:31.058Z,89.95
2022-10-03T03:48:08.664Z,90.18
2022-10-03T03:50:53.045Z,90.31
2022-10-03T03:53:49.447Z,90.40
2022-10-03T03:56:27.053Z,90.25
2022-10-03T03:59:08.248Z,90.31
2022-10-03T04:01:49.288Z,90.53
2022-10-03T04:04:41.431Z,90.69
2022-10-03T04:07:45.179Z,90.79
2022-10-03T04:10:25.816Z,90.83
2022-10-03T04:18:01.167Z,90.85
2022-10-03T04:20:30.416Z,90.97
2022-10-03T04:23:23.900Z,90.99
2022-10-03T04:26:07.224Z,90.91
2022-10-03T04:28:47.022Z,90.85
2022-10-03T04:31:28.534Z,90.79
2022-10-03T04:34:17.009Z,91.00
2022-10-03T04:37:11.066Z,91.16
2022-10-03T04:40:07.864Z,91.38
2022-10-03T04:42:56.181Z,91.39
2022-10-03T04:45:48.463Z,91.63
2022-10-03T04:48:33.980Z,91.90
2022-10-03T04:51:18.168Z,92.06
2022-10-03T04:53:57.066Z,92.15
2022-10-03T04:57:00.530Z,92.18
2022-10-03T04:59:38.456Z,92.25
2022-10-03T05:02:30.943Z,92.37
2022-10-03T05:05:27.458Z,92.31
2022-10-03T05:08:17.640Z,92.43
2022-10-03T05:11:08.823Z,92.54
2022-10-03T05:14:05.877Z,92.49
2022-10-03T05:17:06.682Z,92.39
2022-10-03T05:19:37.554Z,92.45
2022-10-03T05:22:31.357Z,92.46
2022-10-03T05:25:14.143Z,92.31
2022-10-03T05:27:53.282Z,92.19
2022-10-03T05:30:44.952Z,92.18
2022-10-03T05:33:27.901Z,92.30
2022-10-03T05:36:29.331Z,92.39
2022-10-03T05:39:27.461Z,92.44
2022-10-03T05:42:22.204Z,92.45
2022-10-03T05:45:15.708Z,92.45
2022-10-03T05:48:12.698Z,92.53
2022-10-03T05:51:13.507Z,92.41
2022-10-03T05:54:19.441Z,92.26
2022-10-03T05:57:07.997Z,92.04
2022-10-03T06:00:10.308Z,91.91
2022-10-03T06:03:19.167Z,91.70
2022-10-03T06:06:24.785Z,91.63
2022-10-03T06:08:55.554Z,91.49
2022-10-03T06:11:47.201Z,91.29
2022-10-03T06:14:24.775Z,91.17
2022-10-03T06:17:18.898Z,90.94
2022-10-03T06:19:56.838Z,90.97
2022-10-03T06:22:33.527Z,90.95
2022-10-03T06:25:16.532Z,90.85
2022-10-03T06:28:23.568Z,90.74
2022-10-03T06:31:19.135Z,90.62
2022-10-03T06:34:12.721Z,90.59
2022-10-03T06:36:59.800Z,90.48
2022-10-03T06:39:47.958Z,90.42
2022-10-03T06:42:37.843Z,90.44
2022-10-03T06:45:45.474Z,90.44
2022-10-03T06:48:35.571Z,90.41
2022-10-03T06:51:57.662Z,90.74
2022-10-03T06:54:49.822Z,90.98
2022-10-03T06:57:36.694Z,91.01
2022-10-03T07:00:22.150Z,91.36
2022-10-03T07:03:11.835Z,91.45
2022-10-03T07:05:45.454Z,91.45
2022-10-03T07:08:39.030Z,91.34
2022-10-03T07:11:35.009Z,91.31
2022-10-03T07:14:25.319Z,91.54
2022-10-03T07:17:16.313Z,91.65
2022-10-03T07:19:59.288Z,91.84
2022-10-03T07:22:57.494Z,92.14
2022-10-03T07:25:50.769Z,92.24
2022-10-03T07:28:38.707Z,92.37
2022-10-03T07:31:44.651Z,92.44
2022-10-03T07:34:43.313Z,92.31
2022-10-03T07:38:14.586Z,92.31
2022-10-03T07:40:57.172Z,92.29
2022-10-03T07:43:41.060Z,92.24
2022-10-03T07:46:20.880Z,92.23
2022-10-03T07:49:21.417Z,92.29
2022-10-03T07:52:11.364Z,92.20
2022-10-03T07:55:01.338Z,92.11
2022-10-03T07:57:50.887Z,91.98
2022-10-03T08:00:27.249Z,91.78
2022-10-03T08:03:14.792Z,91.58
2022-10-03T08:05:48.484Z,91.67
2022-10-03T08:08:58.216Z,91.44
2022-10-03T08:12:06.389Z,90.98
2022-10-03T08:14:51.607Z,90.55
2022-10-03T08:17:38.201Z,90.16
2022-10-03T08:20:27.435Z,89.99
2022-10-03T08:23:12.502Z,89.90
2022-10-03T08:25:58.510Z,89.63
2022-10-03T08:28:56.944Z,89.24
2022-10-03T08:31:47.432Z,89.05
2022-10-03T08:34:30.134Z,88.78
2022-10-03T08:37:22.782Z,88.65
2022-10-03T08:40:21.173Z,88.47
2022-10-03T08:43:07.882Z,88.01
2022-10-03T08:46:13.155Z,88.06
2022-10-03T08:48:54.669Z,87.72
2022-10-03T08:51:28.245Z,87.69
2022-10-03T08:54:22.372Z,87.40
2022-10-03T08:56:59.721Z,87.41
2022-10-03T09:00:01.880Z,87.07
2022-10-03T09:02:41.552Z,87.07
2022-10-03T09:05:34.288Z,87.50
2022-10-03T09:08:34.042Z,87.62
2022-10-03T09:11:34.806Z,87.78
2022-10-03T09:14:05.635Z,87.96
2022-10-03T09:16:52.034Z,88.14
2022-10-03T09:19:41.430Z,88.29
2022-10-03T09:22:31.820Z,88.54
2022-10-03T09:25:20.010Z,88.71
2022-10-03T09:28:10.663Z,88.88
2022-10-03T09:31:04.195Z,88.87
2022-10-03T09:34:06.032Z,89.00
2022-10-03T09:36:48.466Z,88.94
2022-10-03T09:40:04.599Z,88.95
2022-10-03T09:42:50.619Z,89.22
2022-10-03T09:45:52.924Z,89.41
2022-10-03T09:48:35.783Z,89.43
2022-10-03T09:51:17.949Z,89.45
2022-10-03T09:54:04.837Z,89.48
2022-10-03T09:56:57.856Z,89.71
2022-10-03T10:00:01.144Z,89.83
2022-10-03T10:03:14.061Z,89.86
2022-10-03T10:06:00.607Z,89.80
2022-10-03T10:08:48.702Z,90.29
2022-10-03T10:11:39.527Z,90.40
2022-10-03T10:14:32.360Z,90.64
2022-10-03T10:17:26.363Z,90.73
2022-10-03T10:20:26.485Z,90.86
2022-10-03T10:23:25.939Z,90.91
2022-10-03T10:26:09.884Z,90.83
2022-10-03T10:28:56.329Z,91.07
2022-10-03T10:31:49.113Z,91.00
2022-10-03T10:34:41.505Z,90.93
2022-10-03T10:37:29.362Z,90.87
2022-10-03T10:40:06.261Z,90.50
2022-10-03T10:42:33.961Z,90.04
2022-10-03T10:45:36.605Z,89.62
2022-10-03T10:48:17.261Z,89.60
2022-10-03T10:51:12.870Z,89.42
2022-10-03T10:54:13.512Z,89.11
2022-10-03T10:56:56.596Z,89.16
2022-10-03T11:00:15.346Z,88.08
2022-10-03T11:03:28.918Z,87.91
2022-10-03T11:06:22.498Z,87.51
2022-10-03T11:09:19.625Z,86.94
2022-10-03T11:12:14.228Z,85.00
2022-10-03T11:15:23.638Z,84.93
2022-10-03T11:18:28.635Z,83.40
2022-10-03T11:21:34.698Z,83.48
2022-10-03T11:24:36.288Z,83.07
2022-10-03T11:27:22.400Z,81.60
2022-10-03T11:30:20.748Z,80.78
2022-10-03T11:33:08.881Z,81.13
2022-10-03T11:36:11.893Z,79.28
2022-10-03T11:39:00.366Z,77.80
2022-10-03T11:41:37.390Z,76.28
2022-10-03T11:44:20.393Z,77.18
2022-10-03T11:47:21.130Z,75.70
2022-10-03T11:49:58.145Z,75.44
2022-10-03T11:52:31.688Z,75.71
2022-10-03T11:55:30.775Z,75.15
2022-10-03T11:58:36.484Z,72.97
2022-10-03T12:01:21.146Z,72.64
2022-10-03T12:03:58.053Z,72.50
2022-10-03T12:07:17.686Z,73.49
2022-10-03T12:09:48.540Z,73.35
2022-10-03T12:12:42.499Z,72.77
2022-10-03T12:15:34.931Z,73.33
2022-10-03T12:18:13.356Z,72.43
2022-10-03T12:21:17.372Z,73.23
2022-10-03T12:24:18.611Z,72.12
2022-10-03T12:27:29.234Z,70.36
2022-10-03T12:30:03.145Z,70.44
2022-10-03T12:32:59.319Z,71.65
2022-10-03T12:35:54.540Z,71.61
2022-10-03T12:38:38.164Z,70.67
2022-10-03T12:41:19.173Z,70.79
2022-10-03T12:44:05.486Z,70.63
2022-10-03T12:46:46.741Z,70.10
2022-10-03T12:49:55.651Z,70.14
2022-10-03T12:52:41.422Z,69.20
2022-10-03T12:55:23.712Z,68.99
2022-10-03T12:57:54.626Z,67.10
2022-10-03T13:00:28.012Z,66.77
2022-10-03T13:03:20.137Z,67.39
2022-10-03T13:06:33.925Z,67.66
2022-10-03T13:09:37.429Z,65.68
2022-10-03T13:12:48.357Z,64.71
2022-10-03T13:15:34.131Z,64.98
2022-10-03T13:18:22.750Z,65.65
2022-10-03T13:21:26.702Z,65.64
2022-10-03T13:24:05.599Z,65.53
2022-10-03T13:26:39.782Z,64.74
2022-10-03T13:29:34.743Z,64.02
2022-10-03T13:32:30.170Z,64.06
2022-10-03T13:35:21.122Z,64.44
2022-10-03T13:38:13.231Z,64.39
2022-10-03T13:40:48.497Z,64.65
2022-10-03T13:43:23.453Z,64.78
2022-10-03T13:45:57.130Z,64.90
2022-10-03T13:48:27.838Z,64.85
2022-10-03T13:51:05.749Z,64.66
2022-10-03T13:53:53.792Z,63.61
2022-10-03T13:56:51.421Z,63.71
2022-10-03T13:59:25.400Z,63.97
2022-10-03T14:02:00.564Z,65.03
2022-10-03T14:04:51.407Z,65.06
2022-10-03T14:07:44.280Z,64.65
2022-10-03T14:11:04.622Z,64.14
2022-10-03T14:13:59.698Z,64.09
2022-10-03T14:16:31.939Z,62.36
2022-10-03T14:19:08.918Z,62.03
2022-10-03T14:21:43.413Z,62.50
2022-10-03T14:24:43.137Z,63.06
2022-10-03T14:27:17.483Z,62.45
2022-10-03T14:30:03.532Z,62.62
2022-10-03T14:33:00.877Z,61.92
2022-10-03T14:35:44.873Z,61.95
2022-10-03T14:38:21.798Z,60.49
2022-10-03T14:40:59.701Z,60.86
2022-10-03T14:43:50.977Z,60.14
2022-10-03T14:46:22.524Z,61.07
2022-10-03T14:48:56.138Z,60.87
2022-10-03T14:51:33.427Z,59.51
2022-10-03T14:54:07.770Z,58.61
2022-10-03T14:56:44.245Z,56.29
2022-10-03T14:59:34.038Z,53.32
2022-10-03T15:02:28.225Z,51.80
2022-10-03T15:05:23.398Z,50.30
2022-10-03T15:07:52.268Z,50.81
2022-10-03T15:10:24.562Z,52.33
2022-10-03T15:13:09.930Z,53.67
2022-10-03T15:15:40.477Z,56.07
2022-10-03T15:18:15.887Z,57.91
2022-10-03T15:20:45.974Z,59.24
2022-10-03T15:23:23.288Z,60.44
2022-10-03T15:25:54.213Z,61.79
2022-10-03T15:28:36.052Z,63.08
2022-10-03T15:31:15.692Z,63.66
2022-10-03T15:33:45.966Z,64.28
2022-10-03T15:36:26.651Z,65.14
2022-10-03T15:39:04.670Z,66.34
2022-10-03T15:41:56.433Z,67.64
2022-10-03T15:44:56.988Z,66.78
2022-10-03T15:47:28.628Z,65.93
2022-10-03T15:50:22.042Z,65.96
2022-10-03T15:52:52.658Z,66.15
2022-10-03T15:55:29.089Z,66.41
2022-10-03T15:58:15.481Z,66.88
2022-10-03T16:00:52.992Z,67.25
2022-10-03T16:03:35.886Z,67.64
2022-10-03T16:06:34.929Z,67.85
2022-10-03T16:09:22.042Z,68.10
2022-10-03T16:12:01.896Z,68.24
2022-10-03T16:14:41.715Z,68.67
2022-10-03T16:17:39.180Z,69.15
2022-10-03T16:20:18.145Z,69.45
2022-10-03T16:22:59.214Z,69.94
2022-10-03T16:25:32.506Z,70.01
2022-10-03T16:28:07.647Z,70.15
2022-10-03T16:30:57.199Z,70.50
2022-10-03T16:33:36.943Z,70.79
2022-10-03T16:36:08.347Z,70.91
2022-10-03T16:38:45.055Z,71.18
2022-10-03T16:41:29.113Z,71.54
2022-10-03T16:44:02.662Z,71.67
2022-10-03T16:46:38.196Z,72.07
2022-10-03T16:49:56.750Z,72.14
2022-10-03T16:52:31.883Z,72.10
2022-10-03T16:55:04.684Z,72.40
2022-10-03T16:57:45.909Z,72.47
2022-10-03T17:00:22.756Z,72.88
2022-10-03T17:02:51.207Z,73.13
2022-10-03T17:05:20.145Z,73.08
2022-10-03T17:08:40.103Z,73.00
2022-10-03T17:11:06.013Z,73.37
2022-10-03T17:13:47.643Z,73.70
2022-10-03T17:16:44.276Z,73.71
2022-10-03T17:19:29.347Z,73.49
2022-10-03T17:22:06.953Z,73.45
2022-10-03T17:24:57.695Z,73.60
2022-10-03T17:27:36.835Z,73.35
2022-10-03T17:30:33.263Z,73.27
2022-10-03T17:33:08.941Z,73.48
2022-10-03T17:36:05.186Z,73.76
2022-10-03T17:39:01.893Z,73.64
2022-10-03T17:41:47.137Z,73.95
2022-10-03T17:44:23.847Z,73.90
2022-10-03T17:47:23.260Z,74.00
2022-10-03T17:50:06.618Z,74.29
2022-10-03T17:52:40.578Z,74.31
2022-10-03T17:55:19.017Z,74.83
2022-10-03T17:57:55.277Z,74.29
2022-10-03T18:00:33.891Z,73.85
2022-10-03T18:03:10.678Z,74.15
2022-10-03T18:05:43.979Z,74.49
2022-10-03T18:08:18.610Z,74.76
2022-10-03T18:10:54.748Z,74.96
2022-10-03T18:13:39.290Z,74.90
2022-10-03T18:16:19.453Z,75.35
2022-10-03T18:19:21.948Z,75.70
2022-10-03T18:22:20.921Z,75.92
2022-10-03T18:24:55.382Z,76.13
2022-10-03T18:27:46.538Z,76.73
2022-10-03T18:30:45.705Z,76.39
2022-10-03T18:33:57.161Z,76.91
2022-10-03T18:36:29.798Z,77.12
2022-10-03T18:39:29.270Z,77.78
2022-10-03T18:42:00.925Z,77.76
2022-10-03T18:44:32.525Z,78.26
2022-10-03T18:47:27.271Z,78.56
2022-10-03T18:50:07.598Z,78.71
2022-10-03T18:53:00.908Z,79.18
2022-10-03T18:55:40.761Z,79.05
2022-10-03T18:58:36.629Z,79.49
2022-10-03T19:01:52.868Z,79.79
2022-10-03T19:04:35.719Z,79.86
2022-10-03T19:07:17.094Z,79.85
2022-10-03T19:10:07.916Z,80.42
2022-10-03T19:12:42.419Z,80.60
2022-10-03T19:15:44.319Z,80.90
2022-10-03T19:18:21.168Z,81.19
2022-10-03T19:20:58.474Z,81.46
2022-10-03T19:23:37.154Z,81.74
2022-10-03T19:26:10.832Z,81.87
2022-10-03T19:29:04.430Z,81.87
2022-10-03T19:31:43.833Z,82.19
2022-10-03T19:34:26.252Z,82.17
2022-10-03T19:36:58.068Z,82.08
2022-10-03T19:39:29.845Z,82.43
2022-10-03T19:42:19.208Z,82.28
2022-10-03T19:44:47.426Z,82.52
2022-10-03T19:47:25.143Z,83.16
2022-10-03T19:50:21.098Z,83.22
2022-10-03T19:52:49.840Z,83.29
2022-10-03T19:55:25.047Z,83.76
2022-10-03T19:58:04.366Z,83.71
2022-10-03T20:00:37.236Z,83.70
2022-10-03T20:03:25.765Z,83.54
2022-10-03T20:06:00.829Z,83.82
2022-10-03T20:08:44.665Z,84.46
2022-10-03T20:11:25.987Z,84.65
2022-10-03T20:13:56.673Z,84.88
2022-10-03T20:16:27.301Z,84.96
2022-10-03T20:19:05.821Z,84.78
2022-10-03T20:21:34.788Z,84.94
2022-10-03T20:24:12.977Z,85.10
2022-10-03T20:27:19.340Z,85.24
2022-10-03T20:30:21.661Z,85.47
2022-10-03T20:32:51.264Z,85.64
2022-10-03T20:35:36.796Z,85.42
2022-10-03T20:38:11.198Z,85.58
2022-10-03T20:40:44.371Z,85.92
2022-10-03T20:43:27.535Z,85.72
2022-10-03T20:46:16.844Z,85.81
2022-10-03T20:49:07.056Z,86.08
2022-10-03T20:52:00.206Z,85.84
2022-10-03T20:54:49.122Z,86.00
2022-10-03T20:57:28.926Z,86.11
2022-10-03T21:00:16.070Z,85.92
2022-10-03T21:02:51.317Z,86.02
2022-10-03T21:05:29.068Z,85.89
2022-10-03T21:08:03.820Z,85.63
2022-10-03T21:10:38.324Z,85.79
2022-10-03T21:13:21.796Z,85.64
2022-10-03T21:15:57.505Z,85.98
2022-10-03T21:18:36.730Z,86.18
2022-10-03T21:21:10.612Z,86.10
2022-10-03T21:23:46.972Z,86.02
2022-10-03T21:26:24.071Z,86.03
2022-10-03T21:29:16.919Z,86.34
2022-10-03T21:31:58.738Z,86.26
2022-10-03T21:34:44.306Z,86.32
2022-10-03T21:37:26.775Z,86.53
2022-10-03T21:40:01.197Z,86.72
2022-10-03T21:42:53.784Z,86.72
2022-10-03T21:45:40.039Z,86.82
2022-10-03T21:48:18.061Z,87.00
2022-10-03T21:50:55.151Z,87.18
2022-10-03T21:53:40.654Z,87.23
2022-10-03T21:56:44.397Z,87.21
2022-10-03T21:59:28.300Z,87.17
2022-10-03T22:02:29.812Z,87.44
2022-10-03T22:05:06.624Z,87.45
2022-10-03T22:07:43.128Z,87.47
2022-10-03T22:10:24.040Z,87.68
2022-10-03T22:12:56.586Z,87.75
2022-10-03T22:15:49.397Z,87.69
2022-10-03T22:18:20.514Z,87.80
2022-10-03T22:20:54.619Z,87.85
2022-10-03T22:23:50.431Z,87.80
2022-10-03T22:26:27.291Z,87.75
2022-10-03T22:29:10.311Z,87.90
2022-10-03T22:32:09.430Z,88.14
2022-10-03T22:35:04.356Z,88.07
2022-10-03T22:37:33.283Z,88.21
2022-10-03T22:40:02.392Z,88.44
2022-10-03T22:42:37.074Z,88.59
2022-10-03T22:45:06.637Z,88.87
2022-10-03T22:47:36.798Z,89.11
2022-10-03T22:50:11.232Z,89.37
2022-10-03T22:52:43.823Z,89.56
2022-10-03T22:55:15.505Z,89.82
2022-10-03T22:57:45.599Z,89.97
2022-10-03T23:00:18.050Z,89.91
2022-10-03T23:03:04.346Z,89.89
2022-10-03T23:05:44.411Z,89.90
2022-10-03T23:08:44.978Z,89.68
2022-10-03T23:11:16.254Z,89.68
2022-10-03T23:13:45.214Z,89.66
2022-10-03T23:16:42.152Z,89.51
2022-10-03T23:19:32.904Z,89.39
2022-10-03T23:22:01.790Z,89.40
2022-10-03T23:24:47.772Z,89.41
2022-10-03T23:27:49.418Z,89.24
2022-10-03T23:30:17.318Z,89.21
2022-10-03T23:32:48.154Z,89.13
2022-10-03T23:35:32.585Z,89.29
2022-10-03T23:38:01.295Z,89.16
2022-10-03T23:40:37.884Z,89.15
2022-10-03T23:43:33.377Z,89.33
2022-10-03T23:46:04.461Z,89.23
2022-10-03T23:48:42.494Z,89.25
2022-10-03T23:51:14.224Z,89.22
2022-10-03T23:53:46.927Z,89.13
2022-10-03T23:56:37.335Z,88.94
2022-10-03T23:59:05.340Z,88.77
